Time;durP1;ratioP1;P1;durP2;ratioP2;P2;SDS_P1;SDS_P2;PMS_P1;PMS_P2;Temp;Humidity;BMP_temperature;BMP_pressure;BME280_temperature;BME280_humidity;BME280_pressure;Samples;Min_cycle;Max_cycle;Signal;HPM_P1;HPM_P2
2023/10/25 00:01:36;;;;;;;8.27;6.43;;;;;;;-146.61;100.00;58846.50;5054889;28;20043;-78
2023/10/25 00:04:02;;;;;;;8.40;7.25;;;;;;;-146.61;100.00;58846.50;5036162;28;20041;-78
2023/10/25 00:06:29;;;;;;;11.63;6.95;;;;;;;-146.61;100.00;58846.50;5053384;28;20461;-78
2023/10/25 00:08:55;;;;;;;9.88;7.28;;;;;;;-146.61;100.00;58846.50;5047360;28;20044;-78
2023/10/25 00:11:21;;;;;;;10.70;7.35;;;;;;;-146.61;100.00;58846.50;5025670;28;20043;-77
2023/10/25 00:13:49;;;;;;;8.85;7.05;;;;;;;-146.61;100.00;58846.50;5050958;28;20055;-78
2023/10/25 00:16:16;;;;;;;12.68;6.25;;;;;;;-146.61;100.00;58846.50;5044780;28;20041;-79
2023/10/25 00:18:42;;;;;;;10.35;7.63;;;;;;;-146.61;100.00;58846.50;5027324;28;20134;-76
2023/10/25 00:21:10;;;;;;;10.27;6.78;;;;;;;-146.61;100.00;58846.50;5051760;28;20051;-78
2023/10/25 00:23:36;;;;;;;10.30;7.50;;;;;;;-146.61;100.00;58846.50;5034405;28;20060;-80
2023/10/25 00:26:03;;;;;;;7.22;5.78;;;;;;;-146.61;100.00;58846.50;5052447;28;20130;-78
2023/10/25 00:28:29;;;;;;;9.10;5.82;;;;;;;-146.61;100.00;58846.50;5043239;28;20346;-79
2023/10/25 00:30:56;;;;;;;8.80;6.40;;;;;;;-146.61;100.00;58846.50;5046308;28;20041;-78
2023/10/25 00:33:22;;;;;;;11.00;7.47;;;;;;;-146.61;100.00;58846.50;5049222;28;20040;-82
2023/10/25 00:35:48;;;;;;;8.00;6.22;;;;;;;-146.61;100.00;58846.50;5047548;28;20812;-79
2023/10/25 00:38:15;;;;;;;8.48;6.40;;;;;;;-146.61;100.00;58846.50;5046518;28;20099;-80
2023/10/25 00:40:41;;;;;;;10.85;7.55;;;;;;;-146.61;100.00;58846.50;5036112;28;20045;-78
2023/10/25 00:43:19;;;;;;;12.02;6.70;;;;;;;-146.61;100.00;58846.50;5052853;28;20052;-79
2023/10/25 00:46:11;;;;;;;9.77;6.57;;;;;;;-146.61;100.00;58846.50;5050856;28;20048;-77
2023/10/25 00:48:39;;;;;;;10.50;7.07;;;;;;;-146.61;100.00;58846.50;5054350;28;20055;-79
2023/10/25 00:51:06;;;;;;;10.18;6.57;;;;;;;-146.61;100.00;58846.50;5030963;28;20040;-77
2023/10/25 00:53:34;;;;;;;12.23;6.72;;;;;;;-146.61;100.00;58846.50;5053205;28;20473;-76
2023/10/25 00:56:01;;;;;;;10.55;7.28;;;;;;;-146.61;100.00;58846.50;5060986;28;20044;-77
2023/10/25 00:58:28;;;;;;;10.07;6.07;;;;;;;-146.61;100.00;58846.50;5054679;28;20048;-78
2023/10/25 01:00:56;;;;;;;9.02;6.10;;;;;;;-146.61;100.00;58846.50;5034618;28;20048;-78
2023/10/25 01:03:23;;;;;;;9.20;6.05;;;;;;;-146.61;100.00;58846.50;5036849;28;20127;-76
2023/10/25 01:05:49;;;;;;;8.68;5.40;;;;;;;-146.61;100.00;58846.50;5038078;28;20059;-78
2023/10/25 01:08:23;;;;;;;7.28;5.32;;;;;;;-146.61;100.00;58846.50;5040241;28;20052;-80
2023/10/25 01:10:52;;;;;;;6.38;5.72;;;;;;;-146.61;100.00;58846.50;5038736;28;20033;-79
2023/10/25 01:13:19;;;;;;;6.60;5.10;;;;;;;-146.61;100.00;58846.50;5059317;28;20061;-80
2023/10/25 01:15:46;;;;;;;7.82;5.57;;;;;;;-146.61;100.00;58846.50;5061263;28;20047;-76
2023/10/25 01:18:14;;;;;;;8.98;5.90;;;;;;;-146.61;100.00;58846.50;5062898;28;20036;-77
2023/10/25 01:20:42;;;;;;;10.00;5.88;;;;;;;-146.61;100.00;58846.50;5060279;28;20041;-79
2023/10/25 01:23:08;;;;;;;7.40;5.53;;;;;;;-146.61;100.00;58846.50;5060352;28;20155;-77
2023/10/25 01:25:35;;;;;;;7.88;5.05;;;;;;;-146.61;100.00;58846.50;5039515;28;20051;-79
2023/10/25 01:28:01;;;;;;;7.15;5.35;;;;;;;-146.61;100.00;58846.50;5064442;28;20049;-78
2023/10/25 01:30:28;;;;;;;9.65;4.65;;;;;;;-146.61;100.00;58846.50;5059986;28;20049;-79
2023/10/25 01:32:55;;;;;;;8.50;5.40;;;;;;;-146.61;100.00;58846.50;5060216;28;20043;-81
2023/10/25 01:35:21;;;;;;;8.75;6.35;;;;;;;-146.61;100.00;58846.50;5043505;28;20040;-78
2023/10/25 01:37:48;;;;;;;9.43;5.93;;;;;;;-146.61;100.00;58846.50;5054077;28;20048;-80
2023/10/25 01:40:16;;;;;;;11.88;5.75;;;;;;;-146.61;100.00;58846.50;5058950;28;20515;-78
2023/10/25 01:42:42;;;;;;;7.55;5.40;;;;;;;-146.61;100.00;58846.50;5058439;28;20436;-78
2023/10/25 01:45:09;;;;;;;8.98;5.22;;;;;;;-146.61;100.00;58846.50;5058857;28;20040;-80
2023/10/25 01:47:36;;;;;;;6.28;5.05;;;;;;;-146.61;100.00;58846.50;5039327;28;20041;-79
2023/10/25 01:50:02;;;;;;;7.75;5.05;;;;;;;-146.61;100.00;58846.50;5062211;28;20045;-81
2023/10/25 01:52:30;;;;;;;9.07;4.35;;;;;;;-146.61;100.00;58846.50;5060781;28;20562;-80
2023/10/25 01:54:56;;;;;;;7.43;5.03;;;;;;;-146.61;100.00;58846.50;5061678;28;20055;-76
2023/10/25 01:57:23;;;;;;;7.60;4.72;;;;;;;-146.61;100.00;58846.50;5043326;28;20194;-79
2023/10/25 01:59:49;;;;;;;7.40;4.63;;;;;;;-146.61;100.00;58846.50;5056151;28;20212;-79
2023/10/25 02:02:16;;;;;;;6.10;4.82;;;;;;;-146.61;100.00;58846.50;5061670;28;20050;-77
2023/10/25 02:04:43;;;;;;;6.88;4.72;;;;;;;-146.61;100.00;58846.50;5043084;28;20645;-76
2023/10/25 02:07:09;;;;;;;6.32;4.35;;;;;;;-146.61;100.00;58846.50;5066225;28;20052;-77
2023/10/25 02:09:35;;;;;;;5.00;4.55;;;;;;;-146.61;100.00;58846.50;5064355;28;20040;-77
2023/10/25 02:12:02;;;;;;;4.80;4.35;;;;;;;-146.61;100.00;58846.50;5059754;28;20140;-77
2023/10/25 02:14:29;;;;;;;6.90;4.20;;;;;;;-146.61;100.00;58846.50;5060989;28;20067;-78
2023/10/25 02:16:55;;;;;;;7.97;4.85;;;;;;;-146.61;100.00;58846.50;5057856;28;20154;-79
2023/10/25 02:19:22;;;;;;;10.77;4.88;;;;;;;-146.61;100.00;58846.50;5057819;28;20048;-76
2023/10/25 02:21:48;;;;;;;6.38;4.68;;;;;;;-146.61;100.00;58846.50;5058277;28;20037;-78
2023/10/25 02:24:15;;;;;;;5.07;4.22;;;;;;;-146.61;100.00;58846.50;5058279;28;20673;-77
2023/10/25 02:26:43;;;;;;;8.25;5.57;;;;;;;-146.61;100.00;58846.50;5059769;28;20086;-76
2023/10/25 02:29:09;;;;;;;6.85;4.80;;;;;;;-146.61;100.00;58846.50;5056900;28;20472;-77
2023/10/25 02:31:36;;;;;;;4.43;4.03;;;;;;;-146.61;100.00;58846.50;5056170;28;20404;-76
2023/10/25 02:34:03;;;;;;;6.82;5.40;;;;;;;-146.61;100.00;58846.50;5058712;28;20055;-78
2023/10/25 02:36:31;;;;;;;5.63;4.72;;;;;;;-146.61;100.00;58846.50;5055344;28;20056;-79
2023/10/25 02:38:58;;;;;;;9.60;5.93;;;;;;;-146.61;100.00;58846.50;5059921;28;20036;-80
2023/10/25 02:41:25;;;;;;;7.25;4.93;;;;;;;-146.61;100.00;58846.50;5042386;28;20432;-76
2023/10/25 02:43:53;;;;;;;7.13;4.75;;;;;;;-146.61;100.00;58846.50;5063703;28;20377;-78
2023/10/25 02:46:20;;;;;;;6.15;4.25;;;;;;;-146.61;100.00;58846.50;5058534;28;20095;-80
2023/10/25 02:48:49;;;;;;;6.03;4.88;;;;;;;-146.61;100.00;58846.50;5062346;28;20036;-78
2023/10/25 02:51:17;;;;;;;7.18;5.43;;;;;;;-146.61;100.00;58846.50;5039255;28;20782;-79
2023/10/25 02:53:44;;;;;;;6.07;5.47;;;;;;;-146.61;100.00;58846.50;5054756;28;21004;-76
2023/10/25 02:56:10;;;;;;;5.07;4.57;;;;;;;-146.61;100.00;58846.50;5059639;28;20064;-78
2023/10/25 02:58:37;;;;;;;8.73;4.97;;;;;;;-146.61;100.00;58846.50;5055444;28;20567;-78
2023/10/25 03:01:04;;;;;;;5.38;4.55;;;;;;;-146.61;100.00;58846.50;5056913;28;20636;-80
2023/10/25 03:03:32;;;;;;;5.30;4.50;;;;;;;-146.61;100.00;58846.50;5053108;28;20578;-77
2023/10/25 03:05:59;;;;;;;6.13;4.13;;;;;;;-146.61;100.00;58846.50;5057302;28;20045;-77
2023/10/25 03:08:27;;;;;;;6.10;3.88;;;;;;;-146.61;100.00;58846.50;5055467;28;20540;-77
2023/10/25 03:10:55;;;;;;;8.25;4.90;;;;;;;-146.61;100.00;58846.50;5059613;28;20076;-77
2023/10/25 03:13:26;;;;;;;6.70;3.83;;;;;;;-146.61;100.00;58846.50;5054981;28;20068;-77
2023/10/25 03:15:52;;;;;;;6.95;3.97;;;;;;;-146.61;100.00;58846.50;5070264;28;20051;-80
2023/10/25 03:18:19;;;;;;;5.22;3.53;;;;;;;-146.61;100.00;58846.50;5058197;28;20044;-78
2023/10/25 03:20:47;;;;;;;4.78;4.05;;;;;;;-146.61;100.00;58846.50;5056726;28;20276;-76
2023/10/25 03:23:13;;;;;;;5.30;3.80;;;;;;;-146.61;100.00;58846.50;5059497;28;20123;-77
2023/10/25 03:25:40;;;;;;;6.82;3.97;;;;;;;-146.61;100.00;58846.50;5049321;28;20049;-80
2023/10/25 03:28:06;;;;;;;6.90;3.75;;;;;;;-146.61;100.00;58846.50;5059851;28;20530;-76
2023/10/25 03:30:33;;;;;;;12.55;4.70;;;;;;;-146.61;100.00;58846.50;5057598;28;20459;-76
2023/10/25 03:32:59;;;;;;;9.20;4.25;;;;;;;-146.61;100.00;58846.50;5057090;28;20044;-78
2023/10/25 03:35:29;;;;;;;6.68;3.85;;;;;;;-146.61;100.00;58846.50;5056597;28;20045;-78
2023/10/25 03:37:56;;;;;;;6.10;3.78;;;;;;;-146.61;100.00;58846.50;5061487;28;20468;-79
2023/10/25 03:40:22;;;;;;;6.03;4.00;;;;;;;-146.61;100.00;58846.50;5056607;28;20837;-81
2023/10/25 03:42:49;;;;;;;4.20;3.28;;;;;;;-146.61;100.00;58846.50;5059048;28;20068;-79
2023/10/25 03:45:15;;;;;;;3.90;3.50;;;;;;;-146.61;100.00;58846.50;5060163;28;20124;-77
2023/10/25 03:47:41;;;;;;;4.78;3.25;;;;;;;-146.61;100.00;58846.50;5057120;28;20049;-77
2023/10/25 03:50:08;;;;;;;4.57;3.53;;;;;;;-146.61;100.00;58846.50;5061621;28;20273;-79
2023/10/25 03:52:35;;;;;;;6.47;3.72;;;;;;;-146.61;100.00;58846.50;5058358;28;20045;-81
2023/10/25 03:55:01;;;;;;;6.90;3.83;;;;;;;-146.61;100.00;58846.50;5058673;28;20404;-77
2023/10/25 03:57:27;;;;;;;7.22;3.50;;;;;;;-146.61;100.00;58846.50;5054374;28;20074;-80
2023/10/25 03:59:54;;;;;;;2.95;2.75;;;;;;;-146.61;100.00;58846.50;5051851;28;20036;-77
2023/10/25 04:02:20;;;;;;;4.53;3.00;;;;;;;-146.61;100.00;58846.50;5053440;28;20047;-77
2023/10/25 04:04:47;;;;;;;5.88;3.53;;;;;;;-146.61;100.00;58846.50;5060444;28;20056;-78
2023/10/25 04:07:14;;;;;;;5.35;4.60;;;;;;;-146.61;100.00;58846.50;5061984;28;20055;-81
2023/10/25 04:09:41;;;;;;;4.85;3.53;;;;;;;-146.61;100.00;58846.50;5060102;28;20118;-79
2023/10/25 04:12:12;;;;;;;6.07;3.50;;;;;;;-146.61;100.00;58846.50;5061474;28;20072;-77
2023/10/25 04:14:42;;;;;;;7.78;4.55;;;;;;;-146.61;100.00;58846.50;5060494;28;20048;-80
2023/10/25 04:17:08;;;;;;;5.57;3.10;;;;;;;-146.61;100.00;58846.50;5057905;28;20136;-79
2023/10/25 04:19:38;;;;;;;4.80;3.72;;;;;;;-146.61;100.00;58846.50;5055253;28;20045;-79
2023/10/25 04:22:04;;;;;;;5.28;3.70;;;;;;;-146.61;100.00;58846.50;5056327;28;20047;-81
2023/10/25 04:24:31;;;;;;;2.88;2.63;;;;;;;-146.61;100.00;58846.50;5053866;28;20044;-82
2023/10/25 04:26:57;;;;;;;7.18;3.60;;;;;;;-146.61;100.00;58846.50;5048608;28;20045;-79
2023/10/25 04:29:24;;;;;;;4.53;3.70;;;;;;;-146.61;100.00;58846.50;5058670;28;20041;-77
2023/10/25 04:31:50;;;;;;;8.35;4.25;;;;;;;-146.61;100.00;58846.50;5054823;28;20037;-78
2023/10/25 04:34:17;;;;;;;4.85;3.58;;;;;;;-146.61;100.00;58846.50;5055211;28;20511;-78
2023/10/25 04:36:43;;;;;;;4.53;3.38;;;;;;;-146.61;100.00;58846.50;5054904;28;21116;-77
2023/10/25 04:39:10;;;;;;;5.43;3.42;;;;;;;-146.61;100.00;58846.50;5054854;28;20261;-76
2023/10/25 04:41:36;;;;;;;4.05;3.60;;;;;;;-146.61;100.00;58846.50;5055133;28;20056;-76
2023/10/25 04:44:03;;;;;;;7.68;4.75;;;;;;;-146.61;100.00;58846.50;5057516;28;20102;-77
2023/10/25 04:46:30;;;;;;;8.43;3.22;;;;;;;-146.61;100.00;58846.50;5057513;28;20573;-79
2023/10/25 04:48:56;;;;;;;4.93;3.20;;;;;;;-146.61;100.00;58846.50;5059323;28;20094;-81
2023/10/25 04:51:23;;;;;;;5.78;3.10;;;;;;;-146.61;100.00;58846.50;5040130;28;20060;-79
2023/10/25 04:53:49;;;;;;;6.15;3.63;;;;;;;-146.61;100.00;58846.50;5059767;28;20111;-78
2023/10/25 04:56:15;;;;;;;4.15;3.47;;;;;;;-146.61;100.00;58846.50;5056881;28;20537;-78
2023/10/25 04:58:45;;;;;;;4.60;3.00;;;;;;;-146.61;100.00;58846.50;5052078;28;20147;-80
2023/10/25 05:01:15;;;;;;;5.95;4.30;;;;;;;-146.61;100.00;58846.50;5057779;28;20473;-78
2023/10/25 05:03:45;;;;;;;4.65;3.38;;;;;;;-146.61;100.00;58846.50;5057614;28;20043;-81
2023/10/25 05:06:15;;;;;;;6.00;3.47;;;;;;;-146.61;100.00;58846.50;5057584;28;20049;-81
2023/10/25 05:08:45;;;;;;;4.18;3.80;;;;;;;-146.61;100.00;58846.50;5055291;28;20135;-78
2023/10/25 05:11:15;;;;;;;7.47;3.75;;;;;;;-146.61;100.00;58846.50;5057385;28;20049;-79
2023/10/25 05:13:42;;;;;;;4.10;3.70;;;;;;;-146.61;100.00;58846.50;5057614;28;20785;-78
2023/10/25 05:16:09;;;;;;;5.28;3.55;;;;;;;-146.61;100.00;58846.50;5059705;28;20056;-77
2023/10/25 05:18:36;;;;;;;3.80;3.38;;;;;;;-146.61;100.00;58846.50;5056737;28;20040;-79
2023/10/25 05:21:04;;;;;;;5.25;4.05;;;;;;;-146.61;100.00;58846.50;5061092;28;20045;-77
2023/10/25 05:23:31;;;;;;;4.85;3.25;;;;;;;-146.61;100.00;58846.50;5054211;28;20040;-77
2023/10/25 05:26:04;;;;;;;5.65;3.88;;;;;;;-146.61;100.00;58846.50;5037788;28;20474;-79
2023/10/25 05:28:32;;;;;;;11.27;3.72;;;;;;;-146.61;100.00;58846.50;5054995;28;20072;-79
2023/10/25 05:31:04;;;;;;;4.40;3.88;;;;;;;-146.61;100.00;58846.50;5046944;28;20494;-77
2023/10/25 05:33:32;;;;;;;3.80;3.40;;;;;;;-146.61;100.00;58846.50;5054382;28;20498;-77
2023/10/25 05:36:01;;;;;;;6.38;5.13;;;;;;;-146.61;100.00;58846.50;5058963;28;20044;-81
2023/10/25 05:38:30;;;;;;;8.20;3.92;;;;;;;-146.61;100.00;58846.50;5055415;28;20036;-79
2023/10/25 05:40:56;;;;;;;8.90;4.57;;;;;;;-146.61;100.00;58846.50;5041916;28;20500;-77
2023/10/25 05:43:34;;;;;;;6.60;3.88;;;;;;;-146.61;100.00;58846.50;5061550;28;20040;-76
2023/10/25 05:46:00;;;;;;;7.70;4.25;;;;;;;-146.61;100.00;58846.50;5047124;28;20044;-76
2023/10/25 05:48:27;;;;;;;5.28;3.92;;;;;;;-146.61;100.00;58846.50;5062085;28;20055;-78
2023/10/25 05:50:55;;;;;;;12.02;5.25;;;;;;;-146.61;100.00;58846.50;5062076;28;20036;-80
2023/10/25 05:53:22;;;;;;;8.73;3.80;;;;;;;-146.61;100.00;58846.50;5040234;28;20045;-77
2023/10/25 05:55:48;;;;;;;4.38;3.65;;;;;;;-146.61;100.00;58846.50;5060225;28;20048;-81
2023/10/25 05:58:15;;;;;;;10.82;4.50;;;;;;;-146.61;100.00;58846.50;5041312;28;20043;-79
2023/10/25 06:00:48;;;;;;;11.90;5.40;;;;;;;-146.61;100.00;58846.50;5056440;28;20045;-77
2023/10/25 06:03:17;;;;;;;5.22;3.88;;;;;;;-146.61;100.00;58846.50;5055545;28;20058;-76
2023/10/25 06:05:45;;;;;;;5.68;4.55;;;;;;;-146.61;100.00;58846.50;5042599;28;20053;-78
2023/10/25 06:08:12;;;;;;;3.95;3.60;;;;;;;-146.61;100.00;58846.50;5034305;28;20044;-76
2023/10/25 06:10:39;;;;;;;6.13;4.60;;;;;;;-146.61;100.00;58846.50;5055656;28;20048;-79
2023/10/25 06:13:05;;;;;;;7.93;4.85;;;;;;;-146.61;100.00;58846.50;5056359;28;20044;-76
2023/10/25 06:15:32;;;;;;;9.07;4.45;;;;;;;-146.61;100.00;58846.50;5035686;28;20486;-77
2023/10/25 06:17:58;;;;;;;6.00;4.50;;;;;;;-146.61;100.00;58846.50;5048612;28;20033;-82
2023/10/25 06:20:25;;;;;;;5.05;4.00;;;;;;;-146.61;100.00;58846.50;5057152;28;20036;-80
2023/10/25 06:22:51;;;;;;;7.07;4.93;;;;;;;-146.61;100.00;58846.50;5038276;28;20053;-81
2023/10/25 06:25:18;;;;;;;9.15;5.30;;;;;;;-146.61;100.00;58846.50;5059317;28;20047;-78
2023/10/25 06:27:44;;;;;;;9.80;4.70;;;;;;;-146.61;100.00;58846.50;5052642;28;20118;-82
2023/10/25 06:30:11;;;;;;;11.30;6.45;;;;;;;-146.61;100.00;58846.50;5050889;28;20048;-78
2023/10/25 06:32:37;;;;;;;7.45;5.47;;;;;;;-146.61;100.00;58846.50;5058937;28;20498;-77
2023/10/25 06:35:06;;;;;;;9.02;4.97;;;;;;;-146.61;100.00;58846.50;5058361;28;20045;-79
2023/10/25 06:37:45;;;;;;;10.05;5.80;;;;;;;-146.61;100.00;58846.50;5041620;28;20037;-81
2023/10/25 06:40:14;;;;;;;11.07;6.00;;;;;;;-146.61;100.00;58846.50;5044428;28;20052;-76
2023/10/25 06:42:41;;;;;;;9.63;5.90;;;;;;;-146.61;100.00;58846.50;5059311;28;20056;-79
2023/10/25 06:45:15;;;;;;;11.10;6.40;;;;;;;-146.61;100.00;58846.50;5059945;28;20040;-77
2023/10/25 06:47:43;;;;;;;10.27;5.88;;;;;;;-146.61;100.00;58846.50;5055497;28;20090;-77
2023/10/25 06:50:14;;;;;;;9.07;6.28;;;;;;;-146.61;100.00;58846.50;5053637;28;20052;-77
2023/10/25 06:52:40;;;;;;;13.85;6.22;;;;;;;-146.61;100.00;58846.50;5050365;28;20408;-80
2023/10/25 06:55:08;;;;;;;8.90;5.93;;;;;;;-146.61;100.00;58846.50;5040605;28;20052;-80
2023/10/25 06:57:37;;;;;;;11.50;5.78;;;;;;;-146.61;100.00;58846.50;5052796;28;20052;-80
2023/10/25 07:00:09;;;;;;;10.70;5.85;;;;;;;-146.61;100.00;58846.50;5042584;28;20140;-78
2023/10/25 07:02:50;;;;;;;9.32;5.65;;;;;;;-146.61;100.00;58846.50;5049972;28;20638;-78
2023/10/25 07:05:19;;;;;;;11.10;5.32;;;;;;;-146.61;100.00;58846.50;5036999;28;20102;-78
2023/10/25 07:07:50;;;;;;;8.63;5.53;;;;;;;-146.61;100.00;58846.50;5054557;28;20056;-78
2023/10/25 07:10:16;;;;;;;12.63;5.43;;;;;;;-146.61;100.00;58846.50;5039097;28;20054;-77
2023/10/25 07:12:43;;;;;;;8.90;5.68;;;;;;;-146.61;100.00;58846.50;5019073;28;20057;-79
2023/10/25 07:15:11;;;;;;;8.95;5.15;;;;;;;-146.61;100.00;58846.50;5032506;28;20048;-77
2023/10/25 07:17:38;;;;;;;11.27;5.43;;;;;;;-146.61;100.00;58846.50;5020191;28;20527;-79
2023/10/25 07:20:09;;;;;;;9.25;5.57;;;;;;;-146.61;100.00;58846.50;5032581;28;20041;-80
2023/10/25 07:22:36;;;;;;;10.18;6.20;;;;;;;-146.61;100.00;58846.50;5029756;28;20037;-79
2023/10/25 07:25:03;;;;;;;7.47;5.40;;;;;;;-146.61;100.00;58846.50;5033732;28;20041;-78
2023/10/25 07:27:30;;;;;;;7.75;6.13;;;;;;;-146.61;100.00;58846.50;5030248;28;20964;-82
2023/10/25 07:29:56;;;;;;;8.15;5.70;;;;;;;-146.61;100.00;58846.50;5033711;28;20043;-81
2023/10/25 07:32:23;;;;;;;7.72;5.43;;;;;;;-146.61;100.00;58846.50;5032638;28;20052;-80
2023/10/25 07:34:49;;;;;;;9.02;5.47;;;;;;;-146.61;100.00;58846.50;5034852;28;20109;-82
2023/10/25 07:37:16;;;;;;;16.15;6.57;;;;;;;-146.61;100.00;58846.50;5034209;28;20049;-78
2023/10/25 07:39:42;;;;;;;7.80;6.15;;;;;;;-146.61;100.00;58846.50;5036983;28;20037;-78
2023/10/25 07:42:09;;;;;;;7.78;6.10;;;;;;;-146.61;100.00;58846.50;5034854;28;20049;-81
2023/10/25 07:44:36;;;;;;;8.00;5.57;;;;;;;-146.61;100.00;58846.50;5035874;28;20046;-79
2023/10/25 07:47:03;;;;;;;10.15;5.97;;;;;;;-146.61;100.00;58846.50;5040629;28;20049;-82
2023/10/25 07:49:30;;;;;;;5.72;4.95;;;;;;;-146.61;100.00;58846.50;5038766;28;20044;-79
2023/10/25 07:51:56;;;;;;;12.75;5.78;;;;;;;-146.61;100.00;58846.50;5018890;28;20847;-77
2023/10/25 07:54:23;;;;;;;8.25;5.28;;;;;;;-146.61;100.00;58846.50;5041094;28;20041;-78
2023/10/25 07:56:49;;;;;;;7.38;4.80;;;;;;;-146.61;100.00;58846.50;5017225;28;20044;-78
2023/10/25 07:59:16;;;;;;;13.40;6.18;;;;;;;-146.61;100.00;58846.50;5023711;28;20514;-79
2023/10/25 08:01:42;;;;;;;10.43;5.43;;;;;;;-146.61;100.00;58846.50;5033515;28;20037;-79
2023/10/25 08:04:09;;;;;;;13.43;4.93;;;;;;;-146.61;100.00;58846.50;5034455;28;20659;-79
2023/10/25 08:06:35;;;;;;;12.98;6.22;;;;;;;-146.61;100.00;58846.50;5035050;28;20045;-79
2023/10/25 08:09:02;;;;;;;7.80;5.50;;;;;;;-146.61;100.00;58846.50;5035285;28;20137;-82
2023/10/25 08:11:34;;;;;;;6.53;4.95;;;;;;;-146.61;100.00;58846.50;5042073;28;20067;-78
2023/10/25 08:14:00;;;;;;;8.77;6.55;;;;;;;-146.61;100.00;58846.50;5053439;28;20181;-77
2023/10/25 08:16:27;;;;;;;10.07;6.00;;;;;;;-146.61;100.00;58846.50;5057965;28;20133;-78
2023/10/25 08:18:53;;;;;;;8.25;4.97;;;;;;;-146.61;100.00;58846.50;5060477;28;20068;-77
2023/10/25 08:21:19;;;;;;;7.38;4.63;;;;;;;-146.61;100.00;58846.50;5057363;28;20040;-80
2023/10/25 08:23:47;;;;;;;10.80;5.38;;;;;;;-146.61;100.00;58846.50;5056216;28;20051;-80
2023/10/25 08:26:14;;;;;;;5.88;4.07;;;;;;;-146.61;100.00;58846.50;5054961;28;20037;-78
2023/10/25 08:28:41;;;;;;;7.38;4.18;;;;;;;-146.61;100.00;58846.50;5058886;28;20066;-77
2023/10/25 08:31:14;;;;;;;5.45;4.85;;;;;;;-146.61;100.00;58846.50;5043364;28;20114;-76
2023/10/25 08:33:41;;;;;;;5.40;4.90;;;;;;;-146.61;100.00;58846.50;5056278;28;20163;-76
2023/10/25 08:36:09;;;;;;;5.68;4.07;;;;;;;-146.61;100.00;58846.50;5059216;28;20051;-76
2023/10/25 08:38:35;;;;;;;6.38;4.78;;;;;;;-146.61;100.00;58846.50;5056824;28;20475;-78
2023/10/25 08:41:06;;;;;;;6.28;4.03;;;;;;;-146.61;100.00;58846.50;5054127;28;20523;-79
2023/10/25 08:43:34;;;;;;;5.18;4.28;;;;;;;-146.61;100.00;58846.50;5060582;28;20053;-83
2023/10/25 08:46:06;;;;;;;7.43;4.75;;;;;;;-146.61;100.00;58846.50;5059682;28;20029;-80
2023/10/25 08:48:35;;;;;;;4.40;3.90;;;;;;;-146.61;100.00;58846.50;5056506;28;20052;-79
2023/10/25 08:51:03;;;;;;;4.78;3.47;;;;;;;-146.61;100.00;58846.50;5056228;28;20104;-76
2023/10/25 08:53:33;;;;;;;5.30;4.07;;;;;;;-146.61;100.00;58846.50;5058735;28;20075;-81
2023/10/25 08:55:59;;;;;;;11.15;4.57;;;;;;;-146.61;100.00;58846.50;5060563;28;20098;-79
2023/10/25 08:58:26;;;;;;;7.00;4.00;;;;;;;-146.61;100.00;58846.50;5058239;28;20479;-81
2023/10/25 09:00:54;;;;;;;5.80;3.63;;;;;;;-146.61;100.00;58846.50;5054861;28;20055;-79
2023/10/25 09:03:33;;;;;;;6.85;4.15;;;;;;;-146.61;100.00;58846.50;5056062;28;20651;-81
2023/10/25 09:06:00;;;;;;;4.18;3.35;;;;;;;-146.61;100.00;58846.50;5055001;28;20060;-80
2023/10/25 09:08:27;;;;;;;3.83;3.53;;;;;;;-146.61;100.00;58846.50;5051794;28;20041;-79
2023/10/25 09:11:11;;;;;;;4.40;3.75;;;;;;;-146.61;100.00;58846.50;5051883;28;20215;-79
2023/10/25 09:13:41;;;;;;;4.78;3.50;;;;;;;-146.61;100.00;58846.50;5053870;28;20046;-81
2023/10/25 09:16:10;;;;;;;6.53;4.72;;;;;;;-146.61;100.00;58846.50;5064688;28;20052;-80
2023/10/25 09:18:37;;;;;;;6.72;4.45;;;;;;;-146.61;100.00;58846.50;5059534;28;20502;-77
2023/10/25 09:21:05;;;;;;;6.05;4.47;;;;;;;-146.61;100.00;58846.50;5056814;28;20625;-79
2023/10/25 09:23:33;;;;;;;7.57;4.95;;;;;;;-146.61;100.00;58846.50;5059670;28;20053;-82
2023/10/25 09:26:00;;;;;;;6.93;4.25;;;;;;;-146.61;100.00;58846.50;5059200;28;20048;-79
2023/10/25 09:28:29;;;;;;;4.68;3.92;;;;;;;-146.61;100.00;58846.50;5060057;28;20051;-79
2023/10/25 09:30:58;;;;;;;5.90;4.55;;;;;;;-146.61;100.00;58846.50;5059015;28;20048;-78
2023/10/25 09:33:25;;;;;;;5.80;4.40;;;;;;;-146.61;100.00;58846.50;5041204;28;20041;-78
2023/10/25 09:35:52;;;;;;;6.40;4.38;;;;;;;-146.61;100.00;58846.50;5054859;28;20052;-81
2023/10/25 09:38:19;;;;;;;5.05;3.63;;;;;;;-146.61;100.00;58846.50;5060875;28;20048;-80
2023/10/25 09:40:49;;;;;;;4.43;4.03;;;;;;;-146.61;100.00;58846.50;5040331;28;20041;-76
2023/10/25 09:43:20;;;;;;;5.35;3.88;;;;;;;-146.61;100.00;58846.50;5041537;28;20055;-76
2023/10/25 09:45:50;;;;;;;4.00;3.60;;;;;;;-146.61;100.00;58846.50;5058185;28;20036;-77
2023/10/25 09:48:20;;;;;;;7.53;4.70;;;;;;;-146.61;100.00;58846.50;5058478;28;20547;-78
2023/10/25 09:51:00;;;;;;;5.03;3.53;;;;;;;-146.61;100.00;58846.50;5054551;28;20047;-80
2023/10/25 09:53:53;;;;;;;7.53;3.80;;;;;;;-146.61;100.00;58846.50;5057495;28;20044;-80
2023/10/25 09:56:20;;;;;;;7.57;3.22;;;;;;;-146.61;100.00;58846.50;5052325;28;20063;-81
2023/10/25 09:58:51;;;;;;;4.90;3.53;;;;;;;-146.61;100.00;58846.50;5054092;28;20111;-76
2023/10/25 10:01:21;;;;;;;4.32;3.17;;;;;;;-146.61;100.00;58846.50;5058128;28;20524;-79
2023/10/25 10:04:01;;;;;;;3.28;2.75;;;;;;;-146.61;100.00;58846.50;5056704;28;20503;-78
2023/10/25 10:06:51;;;;;;;3.80;2.88;;;;;;;-146.61;100.00;58846.50;5056661;28;20115;-81
2023/10/25 10:09:33;;;;;;;7.15;3.42;;;;;;;-146.61;100.00;58846.50;5045249;28;20045;-76
2023/10/25 10:12:11;;;;;;;9.30;3.75;;;;;;;-146.61;100.00;58846.50;5039597;28;20060;-77
2023/10/25 10:14:39;;;;;;;3.88;3.28;;;;;;;-146.61;100.00;58846.50;5037649;28;20056;-85
2023/10/25 10:17:10;;;;;;;3.65;3.35;;;;;;;-146.61;100.00;58846.50;5030889;28;20088;-80
2023/10/25 10:19:42;;;;;;;5.07;3.60;;;;;;;-146.61;100.00;58846.50;5041413;28;20048;-78
2023/10/25 10:22:13;;;;;;;8.40;3.17;;;;;;;-146.61;100.00;58846.50;5041077;28;20571;-80
2023/10/25 10:24:56;;;;;;;4.00;3.60;;;;;;;-146.61;100.00;58846.50;5035896;28;20045;-76
2023/10/25 10:27:51;;;;;;;4.03;3.35;;;;;;;-146.61;100.00;58846.50;5044236;28;20100;-79
2023/10/25 10:30:37;;;;;;;3.75;3.40;;;;;;;-146.61;100.00;58846.50;5027316;28;20511;-80
2023/10/25 10:33:04;;;;;;;3.90;3.05;;;;;;;-146.61;100.00;58846.50;5045830;28;20048;-79
2023/10/25 10:35:32;;;;;;;4.97;3.20;;;;;;;-146.61;100.00;58846.50;5040857;28;20041;-77
2023/10/25 10:37:58;;;;;;;2.85;2.65;;;;;;;-146.61;100.00;58846.50;5026830;28;20049;-76
2023/10/25 10:40:25;;;;;;;4.40;2.38;;;;;;;-146.61;100.00;58846.50;5040666;28;20056;-80
2023/10/25 10:42:55;;;;;;;3.00;2.22;;;;;;;-146.61;100.00;58846.50;5042452;28;20773;-79
2023/10/25 10:45:22;;;;;;;3.88;3.22;;;;;;;-146.61;100.00;58846.50;5044165;28;20045;-81
2023/10/25 10:48:07;;;;;;;4.10;2.67;;;;;;;-146.61;100.00;58846.50;5025510;28;20106;-78
2023/10/25 10:50:34;;;;;;;3.47;2.25;;;;;;;-146.61;100.00;58846.50;5037166;28;20060;-79
2023/10/25 10:53:00;;;;;;;6.18;3.05;;;;;;;-146.61;100.00;58846.50;5043518;28;20058;-78
2023/10/25 10:55:27;;;;;;;5.55;2.80;;;;;;;-146.61;100.00;58846.50;5048109;28;20041;-78
2023/10/25 10:57:53;;;;;;;3.25;2.88;;;;;;;-146.61;100.00;58846.50;5044278;28;20045;-75
2023/10/25 11:00:20;;;;;;;6.20;3.30;;;;;;;-146.61;100.00;58846.50;5027074;28;20099;-76
2023/10/25 11:02:48;;;;;;;2.50;2.30;;;;;;;-146.61;100.00;58846.50;5044899;28;20029;-79
2023/10/25 11:05:17;;;;;;;3.25;2.88;;;;;;;-146.61;100.00;58846.50;5039049;28;20059;-77
2023/10/25 11:07:44;;;;;;;5.68;3.13;;;;;;;-146.61;100.00;58846.50;5034076;28;20077;-79
2023/10/25 11:10:11;;;;;;;5.68;2.38;;;;;;;-146.61;100.00;58846.50;5039555;28;20111;-78
2023/10/25 11:12:41;;;;;;;5.28;2.97;;;;;;;-146.61;100.00;58846.50;5052563;28;20080;-78